N323N EGHR-EGNS
Flight info
| Callsign | N323N |
|---|---|
| Flight time | 1h 18m |
| Altitude | 24000 |
| Route | MID L612 WOD M605 PEDIG Y53 WAL L10 KELLY |
| Aircraft | B60T/L-SDFGR/C |
Departure
| Time | 2026-04-20 13:33 |
|---|---|
| Airport | Goodwood Aerodrome (EGHR) |
Arrival
| Time | 2026-04-20 14:51 |
|---|---|
| Airport | Isle of Man Airport (EGNS) |
| Time | Latitude | Longitude | Altitude | Speed | Heading |
|---|---|---|---|---|---|
| 2026-04-20 13:22 | 50.85933 | -0.75544 | 102 ft | 0 kts | 359° |
| 2026-04-20 13:29 | 50.85934 | -0.75544 | 102 ft | 1 kts | 359° |
| 2026-04-20 13:29 | 50.85970 | -0.75545 | 104 ft | 9 kts | 359° |
| 2026-04-20 13:30 | 50.86015 | -0.75583 | 104 ft | 8 kts | 257° |
| 2026-04-20 13:30 | 50.86002 | -0.75695 | 102 ft | 12 kts | 293° |
| 2026-04-20 13:30 | 50.86051 | -0.75841 | 98 ft | 17 kts | 302° |
| 2026-04-20 13:30 | 50.86104 | -0.75987 | 104 ft | 12 kts | 309° |
| 2026-04-20 13:31 | 50.86184 | -0.76093 | 104 ft | 19 kts | 318° |
| 2026-04-20 13:31 | 50.86249 | -0.76251 | 102 ft | 15 kts | 290° |
| 2026-04-20 13:31 | 50.86253 | -0.76373 | 101 ft | 5 kts | 232° |
| 2026-04-20 13:31 | 50.86244 | -0.76374 | 101 ft | 0 kts | 140° |
| 2026-04-20 13:32 | 50.86090 | -0.76143 | 103 ft | 71 kts | 142° |
| 2026-04-20 13:33 | 50.85579 | -0.75469 | 421 ft | 106 kts | 133° |
| 2026-04-20 13:33 | 50.84955 | -0.74562 | 888 ft | 134 kts | 118° |
| 2026-04-20 13:33 | 50.84800 | -0.73197 | 1702 ft | 130 kts | 75° |
| 2026-04-20 13:33 | 50.85421 | -0.72168 | 2445 ft | 145 kts | 21° |
| 2026-04-20 13:34 | 50.86418 | -0.71745 | 3239 ft | 149 kts | 21° |
| 2026-04-20 13:34 | 50.87400 | -0.71259 | 4054 ft | 147 kts | 20° |
| 2026-04-20 13:34 | 50.88401 | -0.70817 | 4781 ft | 151 kts | 20° |
| 2026-04-20 13:34 | 50.89425 | -0.70340 | 5455 ft | 155 kts | 21° |
| 2026-04-20 13:35 | 50.90468 | -0.69806 | 6088 ft | 161 kts | 21° |
| 2026-04-20 13:35 | 50.91551 | -0.69270 | 6731 ft | 165 kts | 20° |
| 2026-04-20 13:35 | 50.92651 | -0.68732 | 7344 ft | 166 kts | 19° |
| 2026-04-20 13:35 | 50.93752 | -0.68196 | 7982 ft | 166 kts | 19° |
| 2026-04-20 13:36 | 50.94846 | -0.67664 | 8626 ft | 167 kts | 17° |
| 2026-04-20 13:36 | 50.95965 | -0.67114 | 9250 ft | 169 kts | 16° |
| 2026-04-20 13:36 | 50.97091 | -0.66562 | 9880 ft | 169 kts | 15° |
| 2026-04-20 13:36 | 50.98220 | -0.66010 | 10479 ft | 170 kts | 15° |
| 2026-04-20 13:37 | 50.99357 | -0.65454 | 11034 ft | 171 kts | 14° |
| 2026-04-20 13:37 | 51.00503 | -0.64892 | 11605 ft | 173 kts | 13° |
| 2026-04-20 13:37 | 51.01657 | -0.64328 | 12192 ft | 173 kts | 13° |
| 2026-04-20 13:37 | 51.02818 | -0.63758 | 12766 ft | 176 kts | 13° |
| 2026-04-20 13:38 | 51.04005 | -0.63177 | 13301 ft | 180 kts | 13° |
| 2026-04-20 13:38 | 51.05203 | -0.62681 | 13839 ft | 179 kts | 359° |
| 2026-04-20 13:38 | 51.06388 | -0.63104 | 14353 ft | 174 kts | 335° |
| 2026-04-20 13:38 | 51.07514 | -0.63828 | 14870 ft | 174 kts | 335° |
| 2026-04-20 13:39 | 51.08638 | -0.64535 | 15395 ft | 173 kts | 335° |
| 2026-04-20 13:39 | 51.09756 | -0.65240 | 15928 ft | 172 kts | 334° |
| 2026-04-20 13:39 | 51.10864 | -0.65940 | 16460 ft | 170 kts | 334° |
| 2026-04-20 13:39 | 51.11960 | -0.66634 | 16997 ft | 168 kts | 333° |
| 2026-04-20 13:40 | 51.13042 | -0.67319 | 17533 ft | 166 kts | 333° |
| 2026-04-20 13:40 | 51.14113 | -0.67996 | 18075 ft | 164 kts | 332° |
| 2026-04-20 13:40 | 51.15169 | -0.68667 | 18615 ft | 162 kts | 332° |
| 2026-04-20 13:40 | 51.16214 | -0.69329 | 19081 ft | 161 kts | 331° |
| 2026-04-20 13:41 | 51.16562 | -0.69549 | 19237 ft | 160 kts | 333° |
| 2026-04-20 13:41 | 51.17591 | -0.70151 | 19684 ft | 159 kts | 333° |
| 2026-04-20 13:41 | 51.18639 | -0.70795 | 20040 ft | 163 kts | 331° |
| 2026-04-20 13:41 | 51.19713 | -0.71478 | 20322 ft | 170 kts | 331° |
| 2026-04-20 13:42 | 51.20833 | -0.72192 | 20558 ft | 176 kts | 331° |
| 2026-04-20 13:42 | 51.23152 | -0.73660 | 21098 ft | 181 kts | 331° |
| 2026-04-20 13:42 | 51.24325 | -0.74404 | 21376 ft | 182 kts | 330° |
| 2026-04-20 13:43 | 51.25489 | -0.75145 | 21648 ft | 182 kts | 330° |
| 2026-04-20 13:43 | 51.26671 | -0.75896 | 21930 ft | 182 kts | 330° |
| 2026-04-20 13:43 | 51.27852 | -0.76649 | 22216 ft | 182 kts | 330° |
| 2026-04-20 13:43 | 51.29031 | -0.77399 | 22509 ft | 182 kts | 330° |
| 2026-04-20 13:44 | 51.30203 | -0.78147 | 22802 ft | 181 kts | 329° |
| 2026-04-20 13:44 | 51.31361 | -0.78886 | 23102 ft | 180 kts | 329° |
| 2026-04-20 13:44 | 51.32520 | -0.79625 | 23435 ft | 178 kts | 329° |
| 2026-04-20 13:44 | 51.33663 | -0.80356 | 23781 ft | 176 kts | 328° |
| 2026-04-20 13:45 | 51.34800 | -0.81083 | 24060 ft | 175 kts | 328° |
| 2026-04-20 13:45 | 51.35943 | -0.81817 | 24254 ft | 181 kts | 328° |
| 2026-04-20 13:45 | 51.37156 | -0.82600 | 24264 ft | 194 kts | 329° |
| 2026-04-20 13:45 | 51.38448 | -0.83426 | 24272 ft | 205 kts | 329° |
| 2026-04-20 13:46 | 51.39783 | -0.84275 | 24269 ft | 212 kts | 329° |
| 2026-04-20 13:46 | 51.41168 | -0.85158 | 24268 ft | 216 kts | 330° |
| 2026-04-20 13:46 | 51.42576 | -0.86059 | 24269 ft | 219 kts | 330° |
| 2026-04-20 13:46 | 51.43993 | -0.86968 | 24269 ft | 220 kts | 330° |
| 2026-04-20 13:47 | 51.45433 | -0.87848 | 24271 ft | 225 kts | 335° |
| 2026-04-20 13:47 | 51.46993 | -0.88360 | 24268 ft | 230 kts | 339° |
| 2026-04-20 13:47 | 51.48569 | -0.88838 | 24267 ft | 230 kts | 339° |
| 2026-04-20 13:47 | 51.50140 | -0.89338 | 24265 ft | 230 kts | 339° |
| 2026-04-20 13:48 | 51.51714 | -0.89844 | 24264 ft | 231 kts | 339° |
| 2026-04-20 13:48 | 51.53292 | -0.90349 | 24262 ft | 231 kts | 339° |
| 2026-04-20 13:48 | 51.54867 | -0.90850 | 24258 ft | 231 kts | 339° |
| 2026-04-20 13:48 | 51.56379 | -0.91562 | 24254 ft | 223 kts | 329° |
| 2026-04-20 13:49 | 51.57795 | -0.92573 | 24266 ft | 222 kts | 328° |
| 2026-04-20 13:49 | 51.59197 | -0.93611 | 24267 ft | 223 kts | 328° |
| 2026-04-20 13:49 | 51.60626 | -0.94605 | 24268 ft | 224 kts | 330° |
| 2026-04-20 13:49 | 51.62055 | -0.95535 | 24266 ft | 224 kts | 330° |
| 2026-04-20 13:50 | 51.63497 | -0.96476 | 24264 ft | 224 kts | 330° |
| 2026-04-20 13:50 | 51.64940 | -0.97428 | 24257 ft | 223 kts | 330° |
| 2026-04-20 13:50 | 51.66380 | -0.98382 | 24257 ft | 224 kts | 330° |
| 2026-04-20 13:50 | 51.67823 | -0.99335 | 24256 ft | 224 kts | 330° |
| 2026-04-20 13:51 | 51.69263 | -1.00288 | 24257 ft | 224 kts | 330° |
| 2026-04-20 13:51 | 51.70704 | -1.01242 | 24256 ft | 224 kts | 330° |
| 2026-04-20 13:51 | 51.72144 | -1.02195 | 24256 ft | 223 kts | 330° |
| 2026-04-20 13:51 | 51.73584 | -1.03150 | 24256 ft | 223 kts | 330° |
| 2026-04-20 13:52 | 51.75021 | -1.04104 | 24256 ft | 223 kts | 330° |
| 2026-04-20 13:52 | 51.75974 | -1.04736 | 24253 ft | 223 kts | 330° |
| 2026-04-20 13:52 | 51.77876 | -1.06000 | 24254 ft | 223 kts | 330° |
| 2026-04-20 13:52 | 51.79309 | -1.06952 | 24253 ft | 222 kts | 330° |
| 2026-04-20 13:53 | 51.80739 | -1.07903 | 24285 ft | 223 kts | 330° |
| 2026-04-20 13:53 | 51.82179 | -1.08862 | 24267 ft | 223 kts | 330° |
| 2026-04-20 13:53 | 51.83130 | -1.09495 | 24266 ft | 223 kts | 330° |
| 2026-04-20 13:53 | 51.84566 | -1.10455 | 24262 ft | 223 kts | 329° |
| 2026-04-20 13:54 | 51.85905 | -1.11649 | 24255 ft | 218 kts | 321° |
| 2026-04-20 13:54 | 51.87173 | -1.12998 | 24255 ft | 218 kts | 321° |
| 2026-04-20 13:54 | 51.88454 | -1.14316 | 24256 ft | 218 kts | 322° |
| 2026-04-20 13:54 | 51.89755 | -1.15587 | 24256 ft | 218 kts | 323° |
| 2026-04-20 13:55 | 51.91057 | -1.16856 | 24256 ft | 218 kts | 323° |
| 2026-04-20 13:55 | 51.92353 | -1.18131 | 24255 ft | 218 kts | 323° |
| 2026-04-20 13:55 | 51.93647 | -1.19407 | 24255 ft | 218 kts | 323° |
| 2026-04-20 13:55 | 51.94942 | -1.20683 | 24256 ft | 218 kts | 323° |
| 2026-04-20 13:56 | 51.96238 | -1.21960 | 24255 ft | 218 kts | 323° |
| 2026-04-20 13:56 | 51.97483 | -1.23187 | 24255 ft | 217 kts | 323° |
| 2026-04-20 13:56 | 51.98779 | -1.24467 | 24256 ft | 219 kts | 323° |
| 2026-04-20 13:56 | 52.00065 | -1.25738 | 24258 ft | 220 kts | 323° |
| 2026-04-20 13:57 | 52.01378 | -1.27035 | 24255 ft | 221 kts | 323° |
| 2026-04-20 13:57 | 52.02698 | -1.28340 | 24255 ft | 221 kts | 323° |
| 2026-04-20 13:57 | 52.03568 | -1.29202 | 24293 ft | 221 kts | 323° |
| 2026-04-20 13:57 | 52.05323 | -1.30940 | 24310 ft | 223 kts | 323° |
| 2026-04-20 13:58 | 52.06651 | -1.32256 | 24310 ft | 224 kts | 323° |
| 2026-04-20 13:58 | 52.07979 | -1.33574 | 24311 ft | 224 kts | 323° |
| 2026-04-20 13:58 | 52.09314 | -1.34898 | 24311 ft | 224 kts | 323° |
| 2026-04-20 13:58 | 52.10643 | -1.36218 | 24312 ft | 225 kts | 323° |
| 2026-04-20 13:59 | 52.11991 | -1.37556 | 24211 ft | 228 kts | 323° |
| 2026-04-20 13:59 | 52.13350 | -1.38910 | 24045 ft | 229 kts | 323° |
| 2026-04-20 13:59 | 52.14695 | -1.40246 | 23870 ft | 225 kts | 323° |
| 2026-04-20 13:59 | 52.16023 | -1.41569 | 23669 ft | 223 kts | 323° |
| 2026-04-20 14:00 | 52.17341 | -1.42884 | 23464 ft | 222 kts | 324° |
| 2026-04-20 14:00 | 52.18640 | -1.44173 | 23255 ft | 221 kts | 324° |
| 2026-04-20 14:00 | 52.19949 | -1.45485 | 23041 ft | 221 kts | 324° |
| 2026-04-20 14:00 | 52.21257 | -1.46795 | 22839 ft | 221 kts | 324° |
| 2026-04-20 14:01 | 52.22569 | -1.48105 | 22622 ft | 221 kts | 324° |
| 2026-04-20 14:01 | 52.23877 | -1.49421 | 22436 ft | 219 kts | 322° |
| 2026-04-20 14:01 | 52.25152 | -1.50792 | 22245 ft | 219 kts | 322° |
| 2026-04-20 14:01 | 52.26449 | -1.52113 | 22051 ft | 220 kts | 323° |
| 2026-04-20 14:02 | 52.27742 | -1.53391 | 21887 ft | 221 kts | 324° |
| 2026-04-20 14:02 | 52.29060 | -1.54703 | 21696 ft | 223 kts | 324° |
| 2026-04-20 14:02 | 52.30389 | -1.56038 | 21507 ft | 225 kts | 324° |
| 2026-04-20 14:02 | 52.31728 | -1.57385 | 21327 ft | 226 kts | 324° |
| 2026-04-20 14:03 | 52.33071 | -1.58737 | 21130 ft | 227 kts | 324° |
| 2026-04-20 14:03 | 52.34420 | -1.60094 | 20959 ft | 228 kts | 324° |
| 2026-04-20 14:03 | 52.35774 | -1.61459 | 20788 ft | 228 kts | 325° |
| 2026-04-20 14:03 | 52.37129 | -1.62824 | 20615 ft | 229 kts | 325° |
| 2026-04-20 14:04 | 52.38485 | -1.64207 | 20449 ft | 229 kts | 322° |
| 2026-04-20 14:04 | 52.39687 | -1.65893 | 20302 ft | 227 kts | 313° |
| 2026-04-20 14:04 | 52.40790 | -1.67664 | 20295 ft | 222 kts | 315° |
| 2026-04-20 14:04 | 52.41938 | -1.69337 | 20291 ft | 220 kts | 317° |
| 2026-04-20 14:05 | 52.43103 | -1.70983 | 20290 ft | 222 kts | 317° |
| 2026-04-20 14:05 | 52.44271 | -1.72657 | 20293 ft | 223 kts | 316° |
| 2026-04-20 14:05 | 52.45441 | -1.74346 | 20295 ft | 224 kts | 316° |
| 2026-04-20 14:05 | 52.46619 | -1.76045 | 20298 ft | 226 kts | 316° |
| 2026-04-20 14:06 | 52.47806 | -1.77758 | 20300 ft | 228 kts | 316° |
| 2026-04-20 14:06 | 52.48984 | -1.79459 | 20300 ft | 229 kts | 316° |
| 2026-04-20 14:06 | 52.50181 | -1.81189 | 20302 ft | 229 kts | 316° |
| 2026-04-20 14:06 | 52.51385 | -1.82919 | 20298 ft | 231 kts | 317° |
| 2026-04-20 14:07 | 52.52598 | -1.84663 | 20297 ft | 233 kts | 317° |
| 2026-04-20 14:07 | 52.53818 | -1.86431 | 20297 ft | 234 kts | 317° |
| 2026-04-20 14:07 | 52.55041 | -1.88204 | 20289 ft | 235 kts | 317° |
| 2026-04-20 14:07 | 52.56267 | -1.89982 | 20291 ft | 235 kts | 317° |
| 2026-04-20 14:08 | 52.57494 | -1.91760 | 20293 ft | 236 kts | 317° |
| 2026-04-20 14:08 | 52.58723 | -1.93544 | 20292 ft | 236 kts | 317° |
| 2026-04-20 14:08 | 52.59955 | -1.95334 | 20293 ft | 236 kts | 317° |
| 2026-04-20 14:08 | 52.61186 | -1.97122 | 20293 ft | 236 kts | 317° |
| 2026-04-20 14:09 | 52.62417 | -1.98912 | 20293 ft | 235 kts | 317° |
| 2026-04-20 14:09 | 52.63625 | -2.00671 | 20293 ft | 234 kts | 316° |
| 2026-04-20 14:09 | 52.64837 | -2.02440 | 20291 ft | 231 kts | 316° |
| 2026-04-20 14:09 | 52.66034 | -2.04182 | 20290 ft | 229 kts | 316° |
| 2026-04-20 14:10 | 52.67225 | -2.05916 | 20289 ft | 228 kts | 316° |
| 2026-04-20 14:10 | 52.68414 | -2.07651 | 20286 ft | 227 kts | 316° |
| 2026-04-20 14:10 | 52.69597 | -2.09379 | 20285 ft | 227 kts | 316° |
| 2026-04-20 14:10 | 52.70781 | -2.11111 | 20285 ft | 227 kts | 316° |
| 2026-04-20 14:11 | 52.71962 | -2.12841 | 20286 ft | 227 kts | 316° |
| 2026-04-20 14:11 | 52.73147 | -2.14576 | 20285 ft | 228 kts | 316° |
| 2026-04-20 14:11 | 52.74332 | -2.16313 | 20271 ft | 227 kts | 316° |
| 2026-04-20 14:11 | 52.75505 | -2.18031 | 20280 ft | 229 kts | 317° |
| 2026-04-20 14:12 | 52.76702 | -2.19784 | 20277 ft | 231 kts | 317° |
| 2026-04-20 14:12 | 52.77904 | -2.21552 | 20277 ft | 231 kts | 317° |
| 2026-04-20 14:12 | 52.79109 | -2.23326 | 20277 ft | 232 kts | 317° |
| 2026-04-20 14:12 | 52.80313 | -2.25097 | 20277 ft | 232 kts | 317° |
| 2026-04-20 14:13 | 52.81521 | -2.26876 | 20277 ft | 232 kts | 317° |
| 2026-04-20 14:13 | 52.82725 | -2.28649 | 20277 ft | 232 kts | 317° |
| 2026-04-20 14:13 | 52.83931 | -2.30428 | 20277 ft | 232 kts | 317° |
| 2026-04-20 14:13 | 52.85123 | -2.32186 | 20277 ft | 232 kts | 317° |
| 2026-04-20 14:14 | 52.86326 | -2.33963 | 20275 ft | 232 kts | 317° |
| 2026-04-20 14:14 | 52.87532 | -2.35745 | 20274 ft | 232 kts | 317° |
| 2026-04-20 14:14 | 52.88736 | -2.37526 | 20275 ft | 232 kts | 317° |
| 2026-04-20 14:14 | 52.89938 | -2.39305 | 20274 ft | 231 kts | 317° |
| 2026-04-20 14:15 | 52.91137 | -2.41082 | 20276 ft | 231 kts | 317° |
| 2026-04-20 14:15 | 52.92326 | -2.42844 | 20277 ft | 231 kts | 317° |
| 2026-04-20 14:15 | 52.93525 | -2.44624 | 20277 ft | 232 kts | 317° |
| 2026-04-20 14:15 | 52.94728 | -2.46408 | 20276 ft | 231 kts | 317° |
| 2026-04-20 14:16 | 52.95924 | -2.48185 | 20275 ft | 231 kts | 317° |
| 2026-04-20 14:16 | 52.97124 | -2.49971 | 20274 ft | 231 kts | 317° |
| 2026-04-20 14:16 | 52.98318 | -2.51747 | 20284 ft | 231 kts | 317° |
| 2026-04-20 14:16 | 52.99523 | -2.53536 | 20264 ft | 232 kts | 317° |
| 2026-04-20 14:17 | 53.00709 | -2.55306 | 20270 ft | 233 kts | 317° |
| 2026-04-20 14:17 | 53.01921 | -2.57119 | 20275 ft | 235 kts | 317° |
| 2026-04-20 14:17 | 53.03138 | -2.58937 | 20273 ft | 235 kts | 317° |
| 2026-04-20 14:17 | 53.04354 | -2.60754 | 20275 ft | 235 kts | 317° |
| 2026-04-20 14:18 | 53.05573 | -2.62577 | 20272 ft | 235 kts | 317° |
| 2026-04-20 14:18 | 53.06789 | -2.64397 | 20279 ft | 235 kts | 317° |
| 2026-04-20 14:18 | 53.08010 | -2.66225 | 20273 ft | 235 kts | 317° |
| 2026-04-20 14:18 | 53.09210 | -2.68024 | 20283 ft | 235 kts | 317° |
| 2026-04-20 14:19 | 53.10429 | -2.69852 | 20282 ft | 235 kts | 317° |
| 2026-04-20 14:19 | 53.11648 | -2.71683 | 20280 ft | 236 kts | 317° |
| 2026-04-20 14:19 | 53.12865 | -2.73513 | 20286 ft | 236 kts | 317° |
| 2026-04-20 14:19 | 53.14084 | -2.75345 | 20282 ft | 236 kts | 317° |
| 2026-04-20 14:20 | 53.15300 | -2.77175 | 20286 ft | 236 kts | 317° |
| 2026-04-20 14:20 | 53.16518 | -2.79009 | 20277 ft | 235 kts | 317° |
| 2026-04-20 14:20 | 53.17737 | -2.80846 | 20277 ft | 235 kts | 317° |
| 2026-04-20 14:20 | 53.18935 | -2.82654 | 20294 ft | 235 kts | 317° |
| 2026-04-20 14:21 | 53.20151 | -2.84490 | 20301 ft | 235 kts | 317° |
| 2026-04-20 14:21 | 53.21366 | -2.86325 | 20296 ft | 235 kts | 317° |
| 2026-04-20 14:21 | 53.22584 | -2.88169 | 20298 ft | 236 kts | 317° |
| 2026-04-20 14:21 | 53.23788 | -2.89988 | 20298 ft | 237 kts | 317° |
| 2026-04-20 14:22 | 53.25010 | -2.91837 | 20298 ft | 237 kts | 317° |
| 2026-04-20 14:22 | 53.26231 | -2.93689 | 20298 ft | 237 kts | 317° |
| 2026-04-20 14:22 | 53.27453 | -2.95542 | 20299 ft | 237 kts | 317° |
| 2026-04-20 14:22 | 53.28676 | -2.97401 | 20299 ft | 237 kts | 317° |
| 2026-04-20 14:23 | 53.29903 | -2.99265 | 20298 ft | 238 kts | 317° |
| 2026-04-20 14:23 | 53.31129 | -3.01130 | 20303 ft | 238 kts | 317° |
| 2026-04-20 14:23 | 53.32336 | -3.02966 | 20297 ft | 238 kts | 317° |
| 2026-04-20 14:23 | 53.33564 | -3.04838 | 20297 ft | 237 kts | 317° |
| 2026-04-20 14:24 | 53.34783 | -3.06695 | 20294 ft | 237 kts | 317° |
| 2026-04-20 14:24 | 53.36004 | -3.08558 | 20281 ft | 237 kts | 317° |
| 2026-04-20 14:24 | 53.37220 | -3.10415 | 20282 ft | 236 kts | 317° |
| 2026-04-20 14:24 | 53.38433 | -3.12269 | 20280 ft | 236 kts | 317° |
| 2026-04-20 14:25 | 53.39569 | -3.14239 | 20290 ft | 234 kts | 307° |
| 2026-04-20 14:25 | 53.40506 | -3.16472 | 20281 ft | 235 kts | 305° |
| 2026-04-20 14:25 | 53.41447 | -3.18711 | 20285 ft | 235 kts | 306° |
| 2026-04-20 14:25 | 53.42385 | -3.20902 | 20279 ft | 235 kts | 306° |
| 2026-04-20 14:26 | 53.43337 | -3.23129 | 20284 ft | 234 kts | 306° |
| 2026-04-20 14:26 | 53.44287 | -3.25356 | 20284 ft | 234 kts | 306° |
| 2026-04-20 14:26 | 53.45236 | -3.27587 | 20284 ft | 234 kts | 306° |
| 2026-04-20 14:26 | 53.46185 | -3.29817 | 20284 ft | 234 kts | 306° |
| 2026-04-20 14:27 | 53.47130 | -3.32042 | 20282 ft | 234 kts | 306° |
| 2026-04-20 14:27 | 53.48075 | -3.34265 | 20279 ft | 234 kts | 306° |
| 2026-04-20 14:27 | 53.49018 | -3.36492 | 20279 ft | 234 kts | 306° |
| 2026-04-20 14:27 | 53.49961 | -3.38715 | 20278 ft | 234 kts | 306° |
| 2026-04-20 14:28 | 53.50905 | -3.40945 | 20284 ft | 234 kts | 306° |
| 2026-04-20 14:28 | 53.51851 | -3.43179 | 20284 ft | 234 kts | 306° |
| 2026-04-20 14:28 | 53.52780 | -3.45379 | 20283 ft | 234 kts | 306° |
| 2026-04-20 14:28 | 53.53723 | -3.47610 | 20285 ft | 234 kts | 306° |
| 2026-04-20 14:29 | 53.54664 | -3.49842 | 20279 ft | 234 kts | 306° |
| 2026-04-20 14:29 | 53.55605 | -3.52075 | 20282 ft | 234 kts | 306° |
| 2026-04-20 14:29 | 53.56548 | -3.54312 | 20282 ft | 234 kts | 306° |
| 2026-04-20 14:29 | 53.57488 | -3.56547 | 20282 ft | 234 kts | 306° |
| 2026-04-20 14:30 | 53.58427 | -3.58779 | 20284 ft | 234 kts | 306° |
| 2026-04-20 14:30 | 53.59368 | -3.61020 | 20286 ft | 234 kts | 306° |
| 2026-04-20 14:30 | 53.60308 | -3.63259 | 20270 ft | 234 kts | 306° |
| 2026-04-20 14:30 | 53.61235 | -3.65482 | 20281 ft | 232 kts | 306° |
| 2026-04-20 14:31 | 53.62165 | -3.67695 | 20281 ft | 231 kts | 306° |
| 2026-04-20 14:31 | 53.63088 | -3.69896 | 20280 ft | 230 kts | 306° |
| 2026-04-20 14:31 | 53.64009 | -3.72096 | 20279 ft | 229 kts | 306° |
| 2026-04-20 14:31 | 53.64914 | -3.74263 | 20278 ft | 229 kts | 306° |
| 2026-04-20 14:32 | 53.65833 | -3.76461 | 20280 ft | 229 kts | 306° |
| 2026-04-20 14:32 | 53.66747 | -3.78653 | 20280 ft | 228 kts | 306° |
| 2026-04-20 14:32 | 53.67662 | -3.80848 | 20283 ft | 229 kts | 306° |
| 2026-04-20 14:32 | 53.68578 | -3.83048 | 20290 ft | 230 kts | 306° |
| 2026-04-20 14:33 | 53.69502 | -3.85263 | 20291 ft | 231 kts | 306° |
| 2026-04-20 14:33 | 53.70426 | -3.87488 | 20291 ft | 232 kts | 306° |
| 2026-04-20 14:33 | 53.71357 | -3.89730 | 20292 ft | 232 kts | 306° |
| 2026-04-20 14:33 | 53.72285 | -3.91968 | 20293 ft | 233 kts | 306° |
| 2026-04-20 14:34 | 53.73203 | -3.94186 | 20292 ft | 233 kts | 306° |
| 2026-04-20 14:34 | 53.74135 | -3.96435 | 20292 ft | 233 kts | 306° |
| 2026-04-20 14:34 | 53.75067 | -3.98687 | 20293 ft | 234 kts | 306° |
| 2026-04-20 14:34 | 53.76002 | -4.00950 | 20294 ft | 235 kts | 306° |
| 2026-04-20 14:35 | 53.76975 | -4.03176 | 20300 ft | 235 kts | 311° |
| 2026-04-20 14:35 | 53.78073 | -4.05235 | 20302 ft | 236 kts | 313° |
| 2026-04-20 14:35 | 53.79187 | -4.07271 | 20301 ft | 236 kts | 313° |
| 2026-04-20 14:35 | 53.80288 | -4.09335 | 20302 ft | 236 kts | 312° |
| 2026-04-20 14:36 | 53.81391 | -4.11408 | 20303 ft | 236 kts | 313° |
| 2026-04-20 14:36 | 53.82494 | -4.13472 | 20303 ft | 236 kts | 312° |
| 2026-04-20 14:36 | 53.83578 | -4.15516 | 20303 ft | 236 kts | 312° |
| 2026-04-20 14:36 | 53.84674 | -4.17588 | 20303 ft | 236 kts | 312° |
| 2026-04-20 14:37 | 53.85779 | -4.19683 | 20046 ft | 238 kts | 312° |
| 2026-04-20 14:37 | 53.86849 | -4.21701 | 19688 ft | 226 kts | 312° |
| 2026-04-20 14:37 | 53.87892 | -4.23664 | 19285 ft | 222 kts | 312° |
| 2026-04-20 14:37 | 53.88921 | -4.25612 | 18887 ft | 222 kts | 312° |
| 2026-04-20 14:38 | 53.89954 | -4.27588 | 18380 ft | 225 kts | 311° |
| 2026-04-20 14:38 | 53.90985 | -4.29594 | 17846 ft | 226 kts | 311° |
| 2026-04-20 14:38 | 53.92016 | -4.31610 | 17327 ft | 227 kts | 311° |
| 2026-04-20 14:38 | 53.93052 | -4.33647 | 16814 ft | 228 kts | 311° |
| 2026-04-20 14:39 | 53.94074 | -4.35661 | 16322 ft | 228 kts | 311° |
| 2026-04-20 14:39 | 53.95099 | -4.37683 | 15812 ft | 222 kts | 311° |
| 2026-04-20 14:39 | 53.96099 | -4.39652 | 15279 ft | 218 kts | 311° |
| 2026-04-20 14:39 | 53.97087 | -4.41595 | 14754 ft | 214 kts | 311° |
| 2026-04-20 14:40 | 53.98038 | -4.43457 | 14241 ft | 204 kts | 311° |
| 2026-04-20 14:40 | 53.98961 | -4.45264 | 13685 ft | 200 kts | 311° |
| 2026-04-20 14:40 | 53.99866 | -4.47036 | 13129 ft | 198 kts | 312° |
| 2026-04-20 14:40 | 54.00765 | -4.48797 | 12588 ft | 196 kts | 311° |
| 2026-04-20 14:41 | 54.01359 | -4.49959 | 12199 ft | 197 kts | 312° |
| 2026-04-20 14:41 | 54.02542 | -4.52288 | 11405 ft | 196 kts | 311° |
| 2026-04-20 14:41 | 54.03429 | -4.54035 | 10827 ft | 195 kts | 312° |
| 2026-04-20 14:41 | 54.04026 | -4.55214 | 10444 ft | 194 kts | 311° |
| 2026-04-20 14:42 | 54.05186 | -4.57524 | 9654 ft | 193 kts | 312° |
| 2026-04-20 14:42 | 54.05763 | -4.58677 | 9254 ft | 193 kts | 311° |
| 2026-04-20 14:42 | 54.06632 | -4.60418 | 8666 ft | 193 kts | 311° |
| 2026-04-20 14:42 | 54.07302 | -4.62368 | 8070 ft | 193 kts | 282° |
| 2026-04-20 14:43 | 54.07120 | -4.64587 | 7491 ft | 192 kts | 242° |
| 2026-04-20 14:43 | 54.06377 | -4.66461 | 6947 ft | 190 kts | 228° |
| 2026-04-20 14:43 | 54.05414 | -4.67982 | 6395 ft | 187 kts | 217° |
| 2026-04-20 14:43 | 54.04418 | -4.69344 | 5839 ft | 186 kts | 224° |
| 2026-04-20 14:44 | 54.03917 | -4.71330 | 5276 ft | 189 kts | 269° |
| 2026-04-20 14:44 | 54.04124 | -4.73497 | 5093 ft | 183 kts | 281° |
| 2026-04-20 14:44 | 54.04391 | -4.75600 | 4922 ft | 181 kts | 282° |
| 2026-04-20 14:44 | 54.04629 | -4.77704 | 4740 ft | 181 kts | 272° |
| 2026-04-20 14:45 | 54.04505 | -4.79826 | 4548 ft | 180 kts | 257° |
| 2026-04-20 14:45 | 54.04224 | -4.81883 | 4381 ft | 181 kts | 255° |
| 2026-04-20 14:45 | 54.03919 | -4.83964 | 4210 ft | 181 kts | 255° |
| 2026-04-20 14:45 | 54.03612 | -4.86039 | 4054 ft | 181 kts | 257° |
| 2026-04-20 14:46 | 54.03820 | -4.88119 | 3855 ft | 184 kts | 304° |
| 2026-04-20 14:46 | 54.04858 | -4.89250 | 3713 ft | 178 kts | 351° |
| 2026-04-20 14:46 | 54.06075 | -4.89428 | 3623 ft | 174 kts | 8° |
| 2026-04-20 14:46 | 54.07098 | -4.88489 | 3439 ft | 170 kts | 57° |
| 2026-04-20 14:47 | 54.07316 | -4.86596 | 3264 ft | 166 kts | 102° |
| 2026-04-20 14:47 | 54.06984 | -4.84709 | 3100 ft | 166 kts | 108° |
| 2026-04-20 14:47 | 54.06707 | -4.82828 | 2934 ft | 167 kts | 99° |
| 2026-04-20 14:48 | 54.06831 | -4.79008 | 2577 ft | 150 kts | 85° |
| 2026-04-20 14:48 | 54.06770 | -4.77325 | 2359 ft | 143 kts | 123° |
| 2026-04-20 14:48 | 54.06560 | -4.75886 | 2474 ft | 127 kts | 79° |
| 2026-04-20 14:48 | 54.06770 | -4.74367 | 2417 ft | 137 kts | 77° |
| 2026-04-20 14:49 | 54.06994 | -4.72737 | 2293 ft | 143 kts | 77° |
| 2026-04-20 14:49 | 54.07220 | -4.71120 | 1966 ft | 137 kts | 77° |
| 2026-04-20 14:49 | 54.07424 | -4.69603 | 1416 ft | 116 kts | 79° |
| 2026-04-20 14:49 | 54.07555 | -4.68412 | 1030 ft | 95 kts | 79° |
| 2026-04-20 14:50 | 54.07699 | -4.67313 | 755 ft | 96 kts | 77° |
| 2026-04-20 14:50 | 54.07854 | -4.66126 | 614 ft | 106 kts | 78° |
| 2026-04-20 14:50 | 54.08006 | -4.64898 | 399 ft | 105 kts | 78° |
| 2026-04-20 14:50 | 54.08159 | -4.63712 | 115 ft | 100 kts | 78° |
| 2026-04-20 14:51 | 54.08294 | -4.62633 | 38 ft | 80 kts | 79° |
| 2026-04-20 14:51 | 54.08368 | -4.62041 | 35 ft | 28 kts | 77° |
| 2026-04-20 14:51 | 54.08415 | -4.61674 | 38 ft | 36 kts | 78° |
| 2026-04-20 14:51 | 54.08506 | -4.61440 | 37 ft | 26 kts | 321° |
| 2026-04-20 14:52 | 54.08546 | -4.61696 | 36 ft | 24 kts | 276° |
| 2026-04-20 14:52 | 54.08553 | -4.61882 | 38 ft | 9 kts | 265° |
| 2026-04-20 14:52 | 54.08539 | -4.61998 | 40 ft | 17 kts | 257° |
| 2026-04-20 14:52 | 54.08509 | -4.62240 | 44 ft | 16 kts | 257° |
| 2026-04-20 14:53 | 54.08484 | -4.62432 | 44 ft | 20 kts | 255° |
| 2026-04-20 14:53 | 54.08454 | -4.62673 | 38 ft | 19 kts | 255° |
| 2026-04-20 14:53 | 54.08435 | -4.62833 | 37 ft | 11 kts | 257° |
| 2026-04-20 14:53 | 54.08417 | -4.62970 | 37 ft | 13 kts | 257° |
| 2026-04-20 14:54 | 54.08397 | -4.63118 | 37 ft | 12 kts | 257° |
| 2026-04-20 14:54 | 54.08381 | -4.63252 | 37 ft | 11 kts | 257° |
| 2026-04-20 14:54 | 54.08365 | -4.63382 | 37 ft | 11 kts | 258° |
| 2026-04-20 14:54 | 54.08349 | -4.63511 | 37 ft | 11 kts | 259° |
| 2026-04-20 14:55 | 54.08369 | -4.63582 | 41 ft | 7 kts | 351° |
| 2026-04-20 14:55 | 54.08415 | -4.63584 | 42 ft | 7 kts | 43° |
| 2026-04-20 14:55 | 54.08431 | -4.63586 | 42 ft | 0 kts | 263° |